Time;durP1;ratioP1;P1;durP2;ratioP2;P2;SDS_P1;SDS_P2;PMS_P1;PMS_P2;Temp;Humidity;BMP_temperature;BMP_pressure;BME280_temperature;BME280_humidity;BME280_pressure;Samples;Min_cycle;Max_cycle;Signal;HPM_P1;HPM_P2
2022/09/06 00:02:03;;;;;;;3.38;2.55;;;;;;;17.46;nan;-24303.41;5032848;28;20203;-56
2022/09/06 00:04:28;;;;;;;5.72;2.67;;;;;;;17.43;nan;-24302.56;5033394;28;20605;-56
2022/09/06 00:06:53;;;;;;;3.08;2.40;;;;;;;17.56;nan;-24306.34;5033250;28;20218;-56
2022/09/06 00:09:19;;;;;;;4.38;2.90;;;;;;;17.07;nan;-24292.66;5033185;28;20701;-56
2022/09/06 00:11:44;;;;;;;3.65;2.88;;;;;;;17.19;nan;-24296.00;5030999;28;20179;-57
2022/09/06 00:14:10;;;;;;;3.58;2.50;;;;;;;17.35;nan;-24300.47;5032453;28;20729;-57
2022/09/06 00:16:35;;;;;;;4.32;2.97;;;;;;;16.97;nan;-24289.88;5032372;28;20232;-56
2022/09/06 00:19:00;;;;;;;3.25;2.58;;;;;;;17.18;nan;-24295.88;5032719;28;20168;-57
2022/09/06 00:21:28;;;;;;;4.30;2.78;;;;;;;17.23;nan;-24297.28;5032265;28;20286;-57
2022/09/06 00:23:54;;;;;;;3.28;2.65;;;;;;;17.19;nan;-24296.00;5032682;28;20191;-56
2022/09/06 00:26:21;;;;;;;5.00;3.03;;;;;;;16.93;nan;-24288.75;5032381;28;20171;-56
2022/09/06 00:28:46;;;;;;;4.57;3.05;;;;;;;17.18;nan;-24295.72;5032403;28;20189;-57
2022/09/06 00:31:19;;;;;;;3.55;2.60;;;;;;;16.86;nan;-24286.94;5032502;28;20164;-57
2022/09/06 00:33:44;;;;;;;4.50;2.83;;;;;;;16.75;nan;-24283.88;5032222;28;20171;-57
2022/09/06 00:36:11;;;;;;;3.83;3.00;;;;;;;16.51;nan;-24277.16;5032300;28;20183;-57
2022/09/06 00:38:37;;;;;;;4.32;3.10;;;;;;;16.67;nan;-24281.78;5032229;28;20201;-57
2022/09/06 00:41:04;;;;;;;3.63;2.80;;;;;;;16.96;nan;-24289.59;5031758;28;20175;-57
2022/09/06 00:43:30;;;;;;;3.63;2.70;;;;;;;16.95;nan;-24289.31;5032121;28;20296;-57
2022/09/06 00:45:56;;;;;;;4.05;2.78;;;;;;;16.58;nan;-24279.25;5032142;28;20227;-57
2022/09/06 00:48:22;;;;;;;2.90;2.50;;;;;;;16.87;nan;-24287.06;5032849;28;20175;-57
2022/09/06 00:50:51;;;;;;;3.75;2.80;;;;;;;16.53;nan;-24277.84;5032714;28;20242;-58
2022/09/06 00:53:18;;;;;;;3.40;2.65;;;;;;;16.68;nan;-24281.91;5035241;28;20191;-57
2022/09/06 00:55:43;;;;;;;3.88;2.85;;;;;;;16.91;nan;-24288.19;5040274;28;20183;-57
2022/09/06 00:58:09;;;;;;;4.82;3.25;;;;;;;17.12;nan;-24294.19;5031962;28;20187;-57
2022/09/06 01:00:35;;;;;;;11.48;3.50;;;;;;;17.03;nan;-24291.53;5035531;28;20182;-57
2022/09/06 01:03:01;;;;;;;3.97;2.80;;;;;;;17.09;nan;-24293.34;5042547;28;20206;-58
2022/09/06 01:05:57;;;;;;;3.00;2.58;;;;;;;17.03;nan;-24291.69;5032269;28;20183;-57
2022/09/06 01:08:33;;;;;;;3.63;2.80;;;;;;;17.07;nan;-24292.81;5032565;28;20631;-58
2022/09/06 01:11:27;;;;;;;3.35;2.63;;;;;;;16.86;nan;-24286.78;5032093;28;20179;-57
2022/09/06 01:14:01;;;;;;;3.67;2.50;;;;;;;16.92;nan;-24288.47;5032301;28;20669;-57
2022/09/06 01:16:36;;;;;;;5.43;3.25;;;;;;;16.81;nan;-24285.41;5032034;28;20206;-57
2022/09/06 01:19:29;;;;;;;3.15;2.50;;;;;;;16.68;nan;-24282.03;5031393;28;20663;-56
2022/09/06 01:22:14;;;;;;;3.22;2.65;;;;;;;16.48;nan;-24276.44;5032029;28;20217;-58
2022/09/06 01:25:34;;;;;;;4.43;3.17;;;;;;;16.43;nan;-24275.06;5032037;28;20179;-57
2022/09/06 01:28:18;;;;;;;3.75;2.85;;;;;;;16.28;nan;-24271.00;5008127;28;20191;-56
2022/09/06 01:30:52;;;;;;;5.47;3.40;;;;;;;16.22;nan;-24269.19;5030045;28;20198;-57
2022/09/06 01:33:37;;;;;;;5.03;3.13;;;;;;;15.81;nan;-24258.00;5031940;28;20177;-57
2022/09/06 01:36:11;;;;;;;4.72;3.00;;;;;;;15.88;nan;-24259.94;5031715;28;20237;-58
2022/09/06 01:38:36;;;;;;;5.05;3.10;;;;;;;15.90;nan;-24260.50;5031886;28;20168;-57
2022/09/06 01:41:02;;;;;;;4.63;3.30;;;;;;;16.42;nan;-24274.78;5031784;28;20620;-58
2022/09/06 01:43:35;;;;;;;4.13;2.80;;;;;;;16.04;nan;-24264.16;5031614;28;20256;-58
2022/09/06 01:46:28;;;;;;;4.18;2.90;;;;;;;16.58;nan;-24279.13;5031119;28;20175;-57
2022/09/06 01:49:12;;;;;;;4.53;3.33;;;;;;;16.20;nan;-24268.63;5031553;28;20182;-57
2022/09/06 01:52:12;;;;;;;6.07;3.15;;;;;;;16.47;nan;-24276.03;5032055;28;20205;-57
2022/09/06 01:54:55;;;;;;;3.25;2.72;;;;;;;16.49;nan;-24276.72;5031425;28;20242;-57
2022/09/06 01:57:42;;;;;;;4.50;2.92;;;;;;;16.50;nan;-24276.88;5031638;28;20571;-57
2022/09/06 02:00:13;;;;;;;4.10;2.85;;;;;;;16.19;nan;-24268.47;5031701;28;20171;-57
2022/09/06 02:03:01;;;;;;;5.80;2.88;;;;;;;16.41;nan;-24274.34;5033506;28;20233;-57
2022/09/06 02:05:45;;;;;;;3.58;2.75;;;;;;;16.00;nan;-24263.03;5024641;28;20208;-57
2022/09/06 02:08:25;;;;;;;6.65;3.75;;;;;;;16.27;nan;-24270.72;5031549;28;20607;-57
2022/09/06 02:10:59;;;;;;;4.47;2.95;;;;;;;16.05;nan;-24264.56;5031389;28;20694;-57
2022/09/06 02:13:30;;;;;;;5.93;2.88;;;;;;;16.04;nan;-24264.16;5041658;28;20213;-56
2022/09/06 02:16:02;;;;;;;4.82;3.13;;;;;;;15.82;nan;-24258.13;5037487;28;20270;-56
2022/09/06 02:18:33;;;;;;;5.55;3.20;;;;;;;16.03;nan;-24264.00;5037796;28;20184;-58
2022/09/06 02:21:01;;;;;;;5.35;3.30;;;;;;;16.02;nan;-24263.59;5031421;28;20284;-57
2022/09/06 02:23:32;;;;;;;5.05;3.30;;;;;;;16.09;nan;-24265.56;5031074;28;20587;-57
2022/09/06 02:26:05;;;;;;;3.80;3.03;;;;;;;16.08;nan;-24265.28;5031149;28;20175;-57
2022/09/06 02:28:31;;;;;;;4.32;3.00;;;;;;;15.75;nan;-24256.19;5031829;28;20627;-57
2022/09/06 02:31:00;;;;;;;5.35;3.30;;;;;;;15.98;nan;-24262.59;5031322;28;20172;-56
2022/09/06 02:33:30;;;;;;;4.55;2.88;;;;;;;16.16;nan;-24267.66;5033527;28;20265;-57
2022/09/06 02:36:01;;;;;;;4.43;2.95;;;;;;;15.89;nan;-24260.22;5013311;28;20187;-57
2022/09/06 02:38:26;;;;;;;4.70;3.47;;;;;;;15.82;nan;-24258.13;5031094;28;20183;-57
2022/09/06 02:40:53;;;;;;;4.63;3.05;;;;;;;15.37;nan;-24245.66;5031236;28;20172;-57
2022/09/06 02:43:20;;;;;;;4.13;3.30;;;;;;;15.82;nan;-24258.28;5030981;28;20210;-57
2022/09/06 02:45:45;;;;;;;5.47;3.42;;;;;;;15.78;nan;-24257.00;5031254;28;20168;-57
2022/09/06 02:48:11;;;;;;;4.68;3.40;;;;;;;15.83;nan;-24258.56;5031341;28;20666;-57
2022/09/06 02:50:36;;;;;;;10.55;3.40;;;;;;;15.69;nan;-24254.63;5031078;28;20203;-57
2022/09/06 02:53:07;;;;;;;4.65;3.33;;;;;;;15.81;nan;-24258.00;5031078;28;20183;-57
2022/09/06 02:55:33;;;;;;;4.47;3.38;;;;;;;15.43;nan;-24247.34;5033532;28;20183;-58
2022/09/06 02:57:58;;;;;;;5.10;3.58;;;;;;;15.68;nan;-24254.34;5041225;28;20249;-57
2022/09/06 03:00:25;;;;;;;3.95;3.45;;;;;;;15.80;nan;-24257.72;5036858;28;20179;-57
2022/09/06 03:02:50;;;;;;;4.85;3.10;;;;;;;15.70;nan;-24254.91;5048067;28;20202;-56
2022/09/06 03:05:16;;;;;;;5.50;3.05;;;;;;;15.73;nan;-24255.63;5048705;28;20241;-58
2022/09/06 03:07:41;;;;;;;4.35;3.00;;;;;;;15.79;nan;-24257.44;5040878;28;20270;-57
2022/09/06 03:10:07;;;;;;;5.78;2.78;;;;;;;15.70;nan;-24254.78;5034219;28;20179;-57
2022/09/06 03:12:33;;;;;;;4.07;3.13;;;;;;;15.62;nan;-24252.53;5034124;28;20347;-57
2022/09/06 03:14:58;;;;;;;4.82;3.03;;;;;;;15.53;nan;-24250.03;5033578;28;20670;-58
2022/09/06 03:17:23;;;;;;;4.93;3.15;;;;;;;15.28;nan;-24243.16;5047909;28;20189;-57
2022/09/06 03:19:49;;;;;;;3.95;3.15;;;;;;;15.46;nan;-24248.19;5033669;28;20224;-57
2022/09/06 03:22:14;;;;;;;5.78;3.63;;;;;;;15.40;nan;-24246.50;5033814;28;20204;-56
2022/09/06 03:24:40;;;;;;;3.92;3.10;;;;;;;15.38;nan;-24246.09;5034008;28;20607;-57
2022/09/06 03:27:05;;;;;;;5.38;3.33;;;;;;;15.13;nan;-24239.09;5034344;28;20641;-57
2022/09/06 03:29:31;;;;;;;4.30;3.22;;;;;;;15.00;nan;-24235.59;5033936;28;20183;-57
2022/09/06 03:31:56;;;;;;;4.88;3.47;;;;;;;15.06;nan;-24237.00;5033844;28;20246;-62
2022/09/06 03:34:22;;;;;;;4.78;3.25;;;;;;;15.39;nan;-24246.38;5033548;28;20179;-57
2022/09/06 03:36:47;;;;;;;4.35;3.10;;;;;;;15.48;nan;-24248.75;5033245;28;20269;-57
2022/09/06 03:39:12;;;;;;;4.68;3.25;;;;;;;15.40;nan;-24246.66;5033413;28;20185;-57
2022/09/06 03:41:38;;;;;;;5.22;3.40;;;;;;;15.04;nan;-24236.72;5032130;28;20176;-56
2022/09/06 03:44:04;;;;;;;4.22;3.10;;;;;;;14.85;nan;-24231.38;5033905;28;20183;-57
2022/09/06 03:46:29;;;;;;;4.72;3.75;;;;;;;14.69;nan;-24226.75;5043020;28;20540;-57
2022/09/06 03:48:56;;;;;;;4.22;3.17;;;;;;;14.64;nan;-24225.34;5032724;28;20337;-57
2022/09/06 03:51:22;;;;;;;6.28;3.45;;;;;;;14.92;nan;-24233.34;5032799;28;20638;-57
2022/09/06 03:53:47;;;;;;;4.82;3.45;;;;;;;14.59;nan;-24224.09;5032699;28;20254;-57
2022/09/06 03:56:13;;;;;;;4.55;3.33;;;;;;;14.93;nan;-24233.50;5032921;28;20577;-57
2022/09/06 03:58:38;;;;;;;6.57;3.50;;;;;;;14.94;nan;-24233.75;5032745;28;20172;-57
2022/09/06 04:01:07;;;;;;;4.63;3.05;;;;;;;15.06;nan;-24237.00;5032949;28;20168;-57
2022/09/06 04:03:33;;;;;;;4.70;3.63;;;;;;;14.73;nan;-24227.88;5043709;28;20290;-57
2022/09/06 04:05:59;;;;;;;5.90;3.53;;;;;;;15.19;nan;-24240.78;5045702;28;20345;-55
2022/09/06 04:08:24;;;;;;;5.72;3.58;;;;;;;15.23;nan;-24241.88;5032185;28;20726;-56
2022/09/06 04:10:52;;;;;;;3.28;2.80;;;;;;;14.92;nan;-24233.34;5031294;28;20184;-55
2022/09/06 04:13:18;;;;;;;3.63;2.88;;;;;;;15.04;nan;-24236.72;5045795;28;20273;-57
2022/09/06 04:15:47;;;;;;;8.05;3.90;;;;;;;15.45;nan;-24247.91;5044806;28;20340;-57
2022/09/06 04:18:13;;;;;;;4.95;3.33;;;;;;;15.14;nan;-24239.38;5035743;28;20184;-57
2022/09/06 04:20:38;;;;;;;4.25;2.97;;;;;;;15.49;nan;-24249.03;5042774;28;20222;-56
2022/09/06 04:23:04;;;;;;;3.80;3.17;;;;;;;15.82;nan;-24258.13;5033755;28;20206;-57
2022/09/06 04:25:30;;;;;;;4.18;3.30;;;;;;;16.08;nan;-24265.41;5034931;28;20213;-57
2022/09/06 04:27:55;;;;;;;4.45;2.90;;;;;;;15.99;nan;-24262.75;5048336;28;20186;-56
2022/09/06 04:30:21;;;;;;;5.72;2.95;;;;;;;15.93;nan;-24261.22;5034763;28;20324;-58
2022/09/06 04:32:46;;;;;;;3.28;2.80;;;;;;;16.28;nan;-24271.00;5043290;28;20179;-57
2022/09/06 04:35:12;;;;;;;5.47;3.25;;;;;;;15.97;nan;-24262.19;5045348;28;20183;-57
2022/09/06 04:37:38;;;;;;;4.30;3.22;;;;;;;16.04;nan;-24264.16;5040005;28;20179;-57
2022/09/06 04:40:03;;;;;;;5.35;3.53;;;;;;;16.15;nan;-24267.38;5037785;28;20199;-54
2022/09/06 04:42:29;;;;;;;4.45;3.40;;;;;;;16.31;nan;-24271.84;5043790;28;20209;-57
2022/09/06 04:44:54;;;;;;;5.43;3.58;;;;;;;16.24;nan;-24269.75;5036794;28;20206;-57
2022/09/06 04:47:20;;;;;;;5.80;3.35;;;;;;;16.53;nan;-24277.84;5042983;28;20262;-57
2022/09/06 04:49:48;;;;;;;5.35;3.63;;;;;;;16.86;nan;-24286.78;5042673;28;20202;-58
2022/09/06 04:52:14;;;;;;;4.00;3.38;;;;;;;16.91;nan;-24288.19;5031692;28;20195;-55
2022/09/06 04:54:39;;;;;;;3.60;3.25;;;;;;;16.94;nan;-24289.03;5031860;28;20179;-57
2022/09/06 04:57:06;;;;;;;5.82;3.90;;;;;;;17.13;nan;-24294.34;5031910;28;20550;-56
2022/09/06 04:59:33;;;;;;;6.35;4.00;;;;;;;16.93;nan;-24288.75;5031601;28;20171;-56
2022/09/06 05:01:58;;;;;;;5.50;4.15;;;;;;;17.13;nan;-24294.34;5031419;28;20622;-56
2022/09/06 05:04:24;;;;;;;6.05;3.75;;;;;;;17.41;nan;-24302.00;5035862;28;20692;-56
2022/09/06 05:06:58;;;;;;;4.95;3.38;;;;;;;17.70;nan;-24310.13;5047930;28;20706;-56
2022/09/06 05:09:24;;;;;;;6.15;3.92;;;;;;;17.60;nan;-24307.47;5015749;28;20190;-56
2022/09/06 05:11:49;;;;;;;6.00;3.63;;;;;;;17.69;nan;-24309.84;5044709;28;20538;-57
2022/09/06 05:14:15;;;;;;;4.82;3.33;;;;;;;17.70;nan;-24309.97;5041104;28;20274;-56
2022/09/06 05:16:40;;;;;;;4.97;3.25;;;;;;;18.23;nan;-24324.59;5037763;28;20205;-57
2022/09/06 05:19:05;;;;;;;6.22;3.90;;;;;;;18.41;nan;-24329.63;5035414;28;20187;-57
2022/09/06 05:21:31;;;;;;;6.57;3.97;;;;;;;17.96;nan;-24317.22;5030883;28;20172;-57
2022/09/06 05:23:56;;;;;;;5.78;3.65;;;;;;;18.28;nan;-24326.00;5031310;28;20678;-57
2022/09/06 05:26:22;;;;;;;6.53;4.00;;;;;;;18.55;nan;-24333.53;5031674;28;20187;-57
2022/09/06 05:28:47;;;;;;;4.32;3.35;;;;;;;18.24;nan;-24325.03;5042147;28;20611;-57
2022/09/06 05:31:25;;;;;;;5.80;3.83;;;;;;;18.71;nan;-24337.84;5030855;28;20349;-58
2022/09/06 05:33:52;;;;;;;5.32;3.33;;;;;;;18.83;nan;-24341.19;5031558;28;20182;-57
2022/09/06 05:36:17;;;;;;;4.75;3.40;;;;;;;18.92;nan;-24343.69;5030935;28;20646;-57
2022/09/06 05:38:43;;;;;;;6.15;4.00;;;;;;;18.93;nan;-24344.13;5033306;28;20179;-57
2022/09/06 05:41:08;;;;;;;5.82;3.70;;;;;;;18.77;nan;-24339.53;5039574;28;20221;-57
2022/09/06 05:43:34;;;;;;;5.60;3.90;;;;;;;18.88;nan;-24342.56;5030945;28;20256;-57
2022/09/06 05:45:59;;;;;;;5.65;3.78;;;;;;;19.19;nan;-24351.06;5031053;28;20242;-57
2022/09/06 05:48:24;;;;;;;4.72;3.33;;;;;;;19.09;nan;-24348.44;5033962;28;20657;-58
2022/09/06 05:51:04;;;;;;;5.82;3.72;;;;;;;19.28;nan;-24353.72;5033898;28;20171;-58
2022/09/06 05:53:38;;;;;;;5.28;3.70;;;;;;;18.90;nan;-24343.13;5035545;28;20193;-58
2022/09/06 05:56:04;;;;;;;4.30;3.40;;;;;;;19.28;nan;-24353.56;5033897;28;20190;-57
2022/09/06 05:58:30;;;;;;;5.32;3.30;;;;;;;18.92;nan;-24343.84;5034232;28;20211;-58
2022/09/06 06:01:15;;;;;;;5.25;3.55;;;;;;;19.51;nan;-24359.84;5033834;28;20266;-58
2022/09/06 06:03:42;;;;;;;5.93;4.03;;;;;;;19.22;nan;-24352.03;5034096;28;20194;-58
2022/09/06 06:06:08;;;;;;;8.15;4.35;;;;;;;19.76;nan;-24366.94;5036063;28;20236;-58
2022/09/06 06:08:34;;;;;;;5.22;3.50;;;;;;;19.96;nan;-24372.34;5035372;28;20194;-58
2022/09/06 06:11:01;;;;;;;4.63;3.20;;;;;;;19.93;nan;-24371.38;5035112;28;20268;-58
2022/09/06 06:13:28;;;;;;;5.55;3.33;;;;;;;20.04;nan;-24374.44;5035540;28;20175;-58
2022/09/06 06:15:57;;;;;;;4.35;3.17;;;;;;;20.22;nan;-24379.44;5034549;28;20188;-58
2022/09/06 06:18:22;;;;;;;5.50;3.75;;;;;;;19.99;nan;-24373.19;5034003;28;20903;-58
2022/09/06 06:20:48;;;;;;;5.85;3.70;;;;;;;20.29;nan;-24381.38;5035801;28;20219;-59
2022/09/06 06:23:14;;;;;;;4.95;3.53;;;;;;;20.02;nan;-24374.00;5032742;28;20203;-57
2022/09/06 06:25:40;;;;;;;5.60;3.72;;;;;;;19.87;nan;-24369.72;5032369;28;20200;-57
2022/09/06 06:28:05;;;;;;;5.35;3.45;;;;;;;20.03;nan;-24374.16;5035839;28;20262;-57
2022/09/06 06:30:30;;;;;;;14.20;4.28;;;;;;;20.11;nan;-24376.38;5031428;28;20214;-57
2022/09/06 06:32:57;;;;;;;5.35;3.22;;;;;;;19.84;nan;-24369.00;5038081;28;20175;-57
2022/09/06 06:35:24;;;;;;;5.13;3.13;;;;;;;20.33;nan;-24382.34;5037710;28;20234;-57
2022/09/06 06:37:49;;;;;;;4.75;3.42;;;;;;;20.16;nan;-24377.91;5038940;28;20183;-57
2022/09/06 06:40:15;;;;;;;5.00;3.17;;;;;;;20.22;nan;-24379.44;5038753;28;20538;-59
2022/09/06 06:42:40;;;;;;;4.03;3.13;;;;;;;20.67;nan;-24391.78;5039291;28;20409;-58
2022/09/06 06:45:06;;;;;;;4.28;2.80;;;;;;;20.73;nan;-24393.44;5040221;28;20190;-57
2022/09/06 06:47:32;;;;;;;4.47;3.20;;;;;;;20.71;nan;-24392.91;5038506;28;20179;-57
2022/09/06 06:49:57;;;;;;;4.97;3.28;;;;;;;20.55;nan;-24388.47;5037929;28;20206;-57
2022/09/06 06:52:23;;;;;;;4.05;3.13;;;;;;;21.00;nan;-24400.81;5053768;28;20191;-58
2022/09/06 06:54:48;;;;;;;5.82;3.10;;;;;;;20.63;nan;-24390.69;5038004;28;20184;-58
2022/09/06 06:57:14;;;;;;;5.22;3.25;;;;;;;20.69;nan;-24392.34;5038734;28;20209;-58
2022/09/06 06:59:39;;;;;;;4.03;2.80;;;;;;;21.11;nan;-24403.84;5038464;28;20195;-58
2022/09/06 07:02:05;;;;;;;4.32;3.22;;;;;;;21.19;nan;-24406.06;5038959;28;20253;-58
2022/09/06 07:04:31;;;;;;;4.18;2.88;;;;;;;21.40;nan;-24411.91;5044478;28;20545;-58
2022/09/06 07:06:57;;;;;;;4.78;3.10;;;;;;;21.57;nan;-24416.47;5038132;28;20174;-58
2022/09/06 07:09:22;;;;;;;6.20;3.15;;;;;;;21.32;nan;-24409.53;5036910;28;20254;-57
2022/09/06 07:11:48;;;;;;;6.07;3.33;;;;;;;21.53;nan;-24415.50;5037576;28;20266;-58
2022/09/06 07:14:15;;;;;;;4.95;3.42;;;;;;;21.67;nan;-24419.25;5041740;28;20270;-58
2022/09/06 07:16:41;;;;;;;3.10;2.78;;;;;;;21.67;nan;-24419.25;5044706;28;20187;-58
2022/09/06 07:19:07;;;;;;;4.80;3.10;;;;;;;21.66;nan;-24418.97;5043987;28;20174;-58
2022/09/06 07:21:32;;;;;;;5.93;3.13;;;;;;;21.63;nan;-24418.13;5048336;28;20182;-58
2022/09/06 07:23:58;;;;;;;5.65;3.13;;;;;;;21.35;nan;-24410.38;5040337;28;20579;-58
2022/09/06 07:26:28;;;;;;;4.43;3.10;;;;;;;21.79;nan;-24422.56;5043365;28;20641;-58
2022/09/06 07:28:56;;;;;;;4.90;3.20;;;;;;;21.80;nan;-24422.72;5041920;28;20198;-61
2022/09/06 07:31:22;;;;;;;6.25;3.28;;;;;;;22.24;nan;-24434.75;5045063;28;20183;-58
2022/09/06 07:33:48;;;;;;;6.05;3.25;;;;;;;22.37;nan;-24438.34;5033550;28;20175;-58
2022/09/06 07:36:14;;;;;;;4.18;3.08;;;;;;;22.12;nan;-24431.56;5033679;28;20218;-58
2022/09/06 07:38:39;;;;;;;3.85;3.00;;;;;;;22.64;nan;-24445.81;5046374;28;20186;-58
2022/09/06 07:41:07;;;;;;;6.05;3.38;;;;;;;22.56;nan;-24443.59;5047880;28;20183;-58
2022/09/06 07:43:34;;;;;;;4.47;3.35;;;;;;;22.23;nan;-24434.63;5032842;28;20195;-58
2022/09/06 07:46:04;;;;;;;3.17;2.67;;;;;;;;;;5034238;28;20658;-58
2022/09/06 07:48:31;;;;;;;4.20;3.10;;;;;;;22.26;nan;-24435.31;5046224;28;20598;-58
2022/09/06 07:51:03;;;;;;;5.32;3.15;;;;;;;22.93;nan;-24453.56;5033311;28;20183;-58
2022/09/06 07:53:28;;;;;;;3.65;2.78;;;;;;;22.75;nan;-24448.72;5040207;28;20205;-58
2022/09/06 07:55:54;;;;;;;4.00;3.15;;;;;;;23.20;nan;-24461.03;5042168;28;20638;-59
2022/09/06 07:58:19;;;;;;;3.85;3.10;;;;;;;22.81;nan;-24450.53;5034743;28;20270;-58
2022/09/06 08:00:45;;;;;;;4.55;3.20;;;;;;;22.67;nan;-24446.50;5044307;28;20212;-58
2022/09/06 08:03:10;;;;;;;3.85;2.97;;;;;;;22.94;nan;-24453.84;5033099;28;20202;-59
2022/09/06 08:05:36;;;;;;;3.88;2.90;;;;;;;23.10;nan;-24458.25;5045905;28;20179;-58
2022/09/06 08:08:02;;;;;;;2.95;2.65;;;;;;;23.32;nan;-24464.34;5036899;28;20245;-58
2022/09/06 08:10:27;;;;;;;4.47;3.38;;;;;;;22.83;nan;-24450.94;5039591;28;20199;-58
2022/09/06 08:12:53;;;;;;;4.43;3.30;;;;;;;22.81;nan;-24450.38;5037831;28;20196;-58
2022/09/06 08:15:20;;;;;;;3.47;2.92;;;;;;;22.95;nan;-24454.25;5048742;28;20662;-58
2022/09/06 08:17:49;;;;;;;4.18;2.58;;;;;;;22.97;nan;-24454.66;5036265;28;20183;-58
2022/09/06 08:20:16;;;;;;;3.90;3.10;;;;;;;22.50;nan;-24441.81;5032185;28;20262;-58
2022/09/06 08:22:42;;;;;;;4.20;2.92;;;;;;;22.42;nan;-24439.88;5032199;28;20210;-58
2022/09/06 08:25:09;;;;;;;3.72;2.90;;;;;;;22.91;nan;-24453.16;5031914;28;20622;-57
2022/09/06 08:27:34;;;;;;;7.93;3.28;;;;;;;23.00;nan;-24455.50;5031332;28;20168;-58
2022/09/06 08:30:00;;;;;;;3.85;2.85;;;;;;;22.70;nan;-24447.50;5037497;28;20193;-58
2022/09/06 08:32:25;;;;;;;3.40;2.92;;;;;;;22.55;nan;-24443.34;5038832;28;20178;-60
2022/09/06 08:34:51;;;;;;;3.08;2.72;;;;;;;22.49;nan;-24441.66;5037919;28;20191;-59
2022/09/06 08:37:16;;;;;;;8.82;3.35;;;;;;;21.83;nan;-24423.53;5040865;28;20172;-58
2022/09/06 08:39:41;;;;;;;3.90;2.85;;;;;;;22.15;nan;-24432.25;5032411;28;20631;-58
2022/09/06 08:42:09;;;;;;;5.07;3.00;;;;;;;22.19;nan;-24433.50;5040208;28;20206;-59
2022/09/06 08:44:47;;;;;;;5.40;3.10;;;;;;;22.68;nan;-24446.94;5048754;28;20218;-60
2022/09/06 08:47:14;;;;;;;3.17;2.85;;;;;;;23.39;nan;-24466.28;5032576;28;20185;-61
2022/09/06 08:49:55;;;;;;;4.28;2.78;;;;;;;23.19;nan;-24460.88;5032497;28;20519;-60
2022/09/06 08:52:46;;;;;;;5.00;3.20;;;;;;;23.68;nan;-24474.28;5032420;28;20175;-61
2022/09/06 08:55:23;;;;;;;5.18;3.17;;;;;;;23.63;nan;-24472.91;5031807;28;20269;-61
2022/09/06 08:57:54;;;;;;;5.03;3.03;;;;;;;23.81;nan;-24477.59;5032524;28;20262;-61
2022/09/06 09:00:21;;;;;;;3.75;2.80;;;;;;;23.64;nan;-24473.19;5032149;28;20175;-61
2022/09/06 09:03:02;;;;;;;3.80;2.70;;;;;;;24.11;nan;-24485.88;5032031;28;20214;-60
2022/09/06 09:05:33;;;;;;;4.05;2.97;;;;;;;24.38;nan;-24493.19;5032153;28;20175;-60
2022/09/06 09:08:12;;;;;;;3.22;2.60;;;;;;;24.35;nan;-24492.34;5031383;28;20820;-63
2022/09/06 09:11:17;;;;;;;3.53;2.65;;;;;;;24.82;nan;-24505.19;5031721;28;20616;-60
2022/09/06 09:13:45;;;;;;;4.50;2.70;;;;;;;24.73;nan;-24502.69;5030488;28;20191;-58
2022/09/06 09:16:12;;;;;;;5.22;3.03;;;;;;;24.50;nan;-24496.63;5031790;28;20182;-60
2022/09/06 09:18:41;;;;;;;3.58;2.83;;;;;;;24.33;nan;-24491.81;5032423;28;20205;-58
2022/09/06 09:21:07;;;;;;;5.07;2.75;;;;;;;24.02;nan;-24483.41;5032311;28;20720;-60
2022/09/06 09:23:33;;;;;;;5.72;3.13;;;;;;;24.58;nan;-24498.84;5031782;28;20218;-60
2022/09/06 09:26:08;;;;;;;4.88;2.90;;;;;;;24.71;nan;-24502.16;5041991;28;20195;-62
2022/09/06 09:28:34;;;;;;;3.97;3.03;;;;;;;24.90;nan;-24507.53;5039596;28;20605;-63
2022/09/06 09:31:00;;;;;;;2.88;2.47;;;;;;;24.86;nan;-24506.41;5040552;28;20183;-64
2022/09/06 09:33:31;;;;;;;4.25;2.95;;;;;;;25.15;nan;-24514.28;5041124;28;20182;-60
2022/09/06 09:36:20;;;;;;;4.05;2.67;;;;;;;25.08;nan;-24512.34;5034428;28;20693;-62
2022/09/06 09:38:48;;;;;;;3.75;2.97;;;;;;;24.92;nan;-24507.94;5033236;28;20659;-62
2022/09/06 09:41:27;;;;;;;4.13;2.85;;;;;;;24.89;nan;-24507.09;5040296;28;20210;-61
2022/09/06 09:43:59;;;;;;;4.80;3.00;;;;;;;24.99;nan;-24509.84;5037364;28;20653;-60
2022/09/06 09:46:24;;;;;;;4.43;2.92;;;;;;;25.43;nan;-24521.84;5031700;28;20175;-61
2022/09/06 09:49:03;;;;;;;4.30;3.38;;;;;;;25.39;nan;-24520.88;5031281;28;20279;-60
2022/09/06 09:51:30;;;;;;;4.00;3.05;;;;;;;25.55;nan;-24525.00;5030663;28;20179;-59
2022/09/06 09:54:02;;;;;;;3.42;2.67;;;;;;;25.62;nan;-24526.94;5037549;28;20653;-61
2022/09/06 09:56:40;;;;;;;4.70;3.05;;;;;;;24.84;nan;-24505.72;5039751;28;20634;-66
2022/09/06 09:59:17;;;;;;;4.38;3.30;;;;;;;24.47;nan;-24495.66;5043942;28;20696;-59
2022/09/06 10:01:42;;;;;;;4.43;3.05;;;;;;;24.52;nan;-24497.19;5032188;28;20597;-62
2022/09/06 10:04:16;;;;;;;6.60;3.22;;;;;;;24.35;nan;-24492.50;5044616;28;20202;-63
2022/09/06 10:06:41;;;;;;;4.13;2.92;;;;;;;24.94;nan;-24508.63;5036171;28;20312;-63
2022/09/06 10:09:33;;;;;;;4.88;3.05;;;;;;;25.38;nan;-24520.59;5040781;28;20179;-61
2022/09/06 10:12:00;;;;;;;5.35;3.10;;;;;;;25.17;nan;-24514.69;5038467;28;20179;-61
2022/09/06 10:14:52;;;;;;;4.18;3.22;;;;;;;25.05;nan;-24511.50;5041227;28;20609;-59
2022/09/06 10:17:34;;;;;;;3.20;2.78;;;;;;;24.92;nan;-24508.06;5042146;28;20217;-62
2022/09/06 10:20:11;;;;;;;7.47;3.42;;;;;;;24.56;nan;-24498.28;5039413;28;20696;-61
2022/09/06 10:23:17;;;;;;;4.03;3.15;;;;;;;24.59;nan;-24499.13;5040011;28;20211;-62
2022/09/06 10:25:50;;;;;;;4.30;3.10;;;;;;;24.84;nan;-24505.88;5035909;28;20230;-58
2022/09/06 10:28:44;;;;;;;4.35;3.03;;;;;;;25.17;nan;-24514.69;5040431;28;20218;-61
2022/09/06 10:31:19;;;;;;;3.50;3.13;;;;;;;25.47;nan;-24522.94;5040940;28;20174;-63
2022/09/06 10:33:44;;;;;;;4.50;3.10;;;;;;;25.80;nan;-24532.00;5035879;28;20186;-59
2022/09/06 10:36:10;;;;;;;4.00;3.20;;;;;;;25.43;nan;-24521.97;5042731;28;20273;-60
2022/09/06 10:38:59;;;;;;;4.90;3.00;;;;;;;25.52;nan;-24524.31;5045592;28;20211;-62
2022/09/06 10:41:46;;;;;;;5.80;3.20;;;;;;;25.63;nan;-24527.34;5033700;28;20232;-56
2022/09/06 10:44:29;;;;;;;6.57;2.90;;;;;;;25.81;nan;-24532.16;5043768;28;20276;-56
2022/09/06 10:47:09;;;;;;;4.07;3.08;;;;;;;25.23;nan;-24516.47;5044765;28;20186;-55
2022/09/06 10:49:36;;;;;;;7.82;3.53;;;;;;;25.14;nan;-24514.00;5043789;28;20186;-58
2022/09/06 10:52:05;;;;;;;3.40;2.78;;;;;;;25.11;nan;-24513.16;5044386;28;20958;-57
2022/09/06 10:54:36;;;;;;;4.10;3.08;;;;;;;24.83;nan;-24505.59;5047095;28;20268;-58
2022/09/06 10:57:10;;;;;;;6.03;3.70;;;;;;;25.18;nan;-24515.09;5043177;28;20183;-57
2022/09/06 10:59:52;;;;;;;6.70;3.50;;;;;;;25.27;nan;-24517.44;5038566;28;20190;-60
2022/09/06 11:03:06;;;;;;;5.18;3.47;;;;;;;25.22;nan;-24516.19;5045315;28;20290;-60
2022/09/06 11:05:42;;;;;;;4.43;3.40;;;;;;;24.88;nan;-24506.81;5033463;28;20190;-58
2022/09/06 11:08:28;;;;;;;4.72;3.40;;;;;;;25.38;nan;-24520.47;5050228;28;20201;-60
2022/09/06 11:10:54;;;;;;;3.83;2.95;;;;;;;25.46;nan;-24522.78;5039417;28;20582;-58
2022/09/06 11:13:25;;;;;;;5.78;3.80;;;;;;;25.48;nan;-24523.34;5045643;28;20183;-59
2022/09/06 11:16:05;;;;;;;3.78;3.05;;;;;;;25.47;nan;-24523.06;5037754;28;20303;-60
2022/09/06 11:18:39;;;;;;;3.90;3.00;;;;;;;25.90;nan;-24534.63;5047126;28;20266;-59
2022/09/06 11:21:39;;;;;;;4.05;3.05;;;;;;;25.95;nan;-24536.13;5038635;28;21359;-61
2022/09/06 11:24:14;;;;;;;4.13;2.95;;;;;;;25.87;nan;-24533.81;5038655;28;20230;-64
2022/09/06 11:27:27;;;;;;;5.38;3.40;;;;;;;26.34;nan;-24546.72;5036901;28;20202;-62
2022/09/06 11:29:57;;;;;;;4.32;2.63;;;;;;;26.27;nan;-24544.78;5034330;28;20686;-61
2022/09/06 11:32:37;;;;;;;3.88;2.85;;;;;;;26.04;nan;-24538.47;5035278;28;20195;-60
2022/09/06 11:35:09;;;;;;;3.75;2.65;;;;;;;25.51;nan;-24524.16;5036940;28;20188;-62
2022/09/06 11:37:39;;;;;;;4.70;2.85;;;;;;;25.66;nan;-24528.16;5036476;28;20198;-62
2022/09/06 11:40:18;;;;;;;3.00;2.30;;;;;;;25.98;nan;-24536.81;5036918;28;20190;-62
2022/09/06 11:42:43;;;;;;;2.85;2.22;;;;;;;26.60;nan;-24553.59;5038749;28;20211;-63
2022/09/06 11:45:09;;;;;;;3.28;2.42;;;;;;;26.58;nan;-24553.03;5041817;28;20684;-62
2022/09/06 11:47:39;;;;;;;2.55;2.08;;;;;;;26.92;nan;-24562.38;5041751;28;20178;-62
2022/09/06 11:50:19;;;;;;;3.33;2.33;;;;;;;27.17;nan;-24569.22;5043716;28;20195;-62
2022/09/06 11:52:49;;;;;;;3.47;2.33;;;;;;;26.88;nan;-24561.28;5034892;28;20198;-62
2022/09/06 11:55:17;;;;;;;2.47;2.10;;;;;;;27.27;nan;-24571.84;5042349;28;20552;-63
2022/09/06 11:57:46;;;;;;;2.83;2.03;;;;;;;27.39;nan;-24574.97;5037500;28;20215;-62